.
WxDataArchive / Data Records for 2016-03-21
2016-03-20 March 2016 2016-03-22

Data Records for Monday, 21 March 2016

Time	Temp	Chill	HIndex	Humid	Dewpt	 Wind 	HiWind	WindDir	Rain 	Barom
-----	----	-----	------	-----	-----	------	------	-------	-----	-----
00:00	31.2	31.2	31.2	64	20.5	0	1	315	0.00	30.103 
00:05	31.0	31.0	31.0	64	20.3	0	1	315	0.00	30.103 
00:10	30.9	30.9	30.9	64	20.2	0	1	315	0.00	30.103 
00:15	30.7	30.7	30.7	65	20.3	0	1	315	0.00	30.097 
00:20	30.6	30.6	30.6	65	20.3	0	1	315	0.00	30.097 
00:25	30.6	30.6	30.6	65	20.3	0	1	315	0.00	30.097 
00:30	30.4	30.4	30.4	66	20.4	0	1	315	0.00	30.095 
00:35	30.3	30.3	30.3	66	20.3	0	1	315	0.00	30.095 
00:40	30.3	30.3	30.3	67	20.7	0	1	315	0.00	30.095 
00:45	30.3	30.3	30.3	67	20.7	0	1	315	0.00	30.094 
00:50	30.1	30.1	30.1	67	20.5	0	1	315	0.00	30.094 
00:55	30.1	30.1	30.1	67	20.5	0	1	315	0.00	30.094 
01:00	30.0	30.0	30.0	68	20.7	0	1	315	0.00	30.094 
01:05	30.0	30.0	30.0	68	20.7	0	1	315	0.00	30.094 
01:10	30.0	30.0	30.0	68	20.7	0	1	315	0.00	30.094 
01:15	30.0	30.0	30.0	69	21.1	0	1	315	0.00	30.091 
01:20	30.0	30.0	30.0	69	21.1	0	1	315	0.00	30.091 
01:25	30.0	30.0	30.0	69	21.1	0	1	315	0.00	30.091 
01:30	29.8	29.8	29.8	69	20.9	0	1	315	0.00	30.090 
01:35	29.8	29.8	29.8	69	20.9	0	1	315	0.00	30.090 
01:40	29.8	29.8	29.8	69	20.9	0	1	315	0.00	30.090 
01:45	29.8	29.8	29.8	70	21.2	0	2	315	0.00	30.089 
01:50	29.8	29.8	29.8	70	21.2	0	1	315	0.00	30.089 
01:55	29.8	29.8	29.8	70	21.2	0	1	315	0.00	30.089 
02:00	29.8	29.8	29.8	70	21.2	0	1	315	0.00	30.083 
02:05	29.8	29.8	29.8	70	21.2	0	1	315	0.00	30.083 
02:10	29.8	29.8	29.8	70	21.2	0	1	315	0.00	30.083 
02:15	29.8	29.8	29.8	70	21.2	0	1	315	0.00	30.083 
02:20	29.8	29.8	29.8	70	21.2	0	1	315	0.00	30.083 
02:25	29.8	29.8	29.8	70	21.2	0	1	315	0.00	30.083 
02:30	29.8	29.8	29.8	70	21.2	0	2	315	0.00	30.081 
02:35	29.8	29.8	29.8	70	21.2	0	1	315	0.00	30.081 
02:40	29.8	29.8	29.8	70	21.2	0	1	315	0.00	30.081 
02:45	29.7	29.7	29.7	70	21.1	0	1	315	0.00	30.083 
02:50	29.7	29.7	29.7	71	21.5	0	1	315	0.00	30.083 
02:55	29.7	29.7	29.7	71	21.5	0	2	315	0.00	30.083 
03:00	29.5	29.5	29.5	71	21.3	0	1	315	0.00	30.086 
03:05	29.5	29.5	29.5	72	21.6	0	2	315	0.00	30.086 
03:10	29.5	29.5	29.5	72	21.6	0	2	315	0.00	30.086 
03:15	29.5	29.5	29.5	73	21.9	0	1	315	0.00	30.088 
03:20	29.5	29.5	29.5	73	21.9	0	1	315	0.00	30.088 
03:25	29.4	29.4	29.4	73	21.8	0	1	315	0.00	30.088 
03:30	29.4	29.4	29.4	74	22.2	0	1	315	0.00	30.089 
03:35	29.3	29.3	29.3	74	22.1	0	1	315	0.00	30.089 
03:40	29.3	29.3	29.3	75	22.4	0	1	315	0.00	30.089 
03:45	29.1	29.1	29.1	75	22.2	0	0	---	0.00	30.090 
03:50	29.0	29.0	29.0	76	22.4	0	0	---	0.00	30.090 
03:55	29.0	29.0	29.0	76	22.4	0	0	---	0.00	30.090 
04:00	28.7	28.7	28.7	76	22.1	0	0	---	0.00	30.091 
04:05	28.7	28.7	28.7	77	22.4	0	0	---	0.00	30.091 
04:10	28.5	28.5	28.5	77	22.2	0	1	315	0.00	30.091 
04:15	28.5	28.5	28.5	77	22.2	0	1	315	0.00	30.091 
04:20	28.4	28.4	28.4	77	22.1	0	1	315	0.00	30.091 
04:25	28.4	28.4	28.4	78	22.4	0	0	---	0.00	30.091 
04:30	28.2	28.2	28.2	78	22.2	0	1	315	0.00	30.091 
04:35	28.2	28.2	28.2	78	22.2	0	1	315	0.00	30.091 
04:40	28.2	28.2	28.2	78	22.2	0	0	---	0.00	30.091 
04:45	28.1	28.1	28.1	78	22.1	0	0	---	0.00	30.090 
04:50	27.9	27.9	27.9	79	22.2	0	1	315	0.00	30.090 
04:55	27.9	27.9	27.9	79	22.2	0	0	---	0.00	30.090 
05:00	27.9	27.9	27.9	79	22.2	0	0	---	0.00	30.086 
05:05	27.9	27.9	27.9	80	22.5	0	0	---	0.00	30.086 
05:10	27.9	27.9	27.9	80	22.5	0	0	---	0.00	30.086 
05:15	28.1	28.1	28.1	80	22.7	0	0	---	0.00	30.094 
05:20	28.1	28.1	28.1	80	22.7	0	0	---	0.00	30.094 
05:25	28.2	28.2	28.2	81	23.1	0	0	---	0.00	30.094 
05:30	28.2	28.2	28.2	81	23.1	0	0	---	0.00	30.095 
05:35	28.4	28.4	28.4	81	23.3	0	0	---	0.00	30.095 
05:40	28.4	28.4	28.4	81	23.3	0	0	---	0.00	30.095 
05:45	28.5	28.5	28.5	81	23.4	0	0	---	0.00	30.098 
05:50	28.5	28.5	28.5	81	23.4	0	0	---	0.00	30.098 
05:55	28.7	28.7	28.7	81	23.6	0	0	---	0.00	30.098 
06:00	28.7	28.7	28.7	81	23.6	0	1	315	0.00	30.100 
06:05	28.8	28.8	28.8	81	23.7	0	0	---	0.00	30.100 
06:10	29.0	29.0	29.0	81	23.9	0	0	---	0.00	30.100 
06:15	29.0	29.0	29.0	81	23.9	0	0	---	0.00	30.103 
06:20	29.0	29.0	29.0	80	23.6	0	0	---	0.00	30.103 
06:25	28.8	28.8	28.8	80	23.4	0	0	---	0.00	30.103 
06:30	28.7	28.7	28.7	80	23.3	0	0	---	0.00	30.108 
06:35	28.5	28.5	28.5	80	23.1	0	0	---	0.00	30.108 
06:40	28.4	28.4	28.4	80	23.0	0	0	---	0.00	30.108 
06:45	28.4	28.4	28.4	80	23.0	0	0	---	0.00	30.114 
06:50	28.2	28.2	28.2	81	23.1	0	0	---	0.00	30.114 
06:55	28.2	28.2	28.2	81	23.1	0	0	---	0.00	30.114 
07:00	28.1	28.1	28.1	81	23.0	0	0	---	0.00	30.115 
07:05	28.1	28.1	28.1	81	23.0	0	0	---	0.00	30.115 
07:10	27.9	27.9	27.9	81	22.8	0	0	---	0.00	30.115 
07:15	27.8	27.8	27.8	81	22.7	0	0	---	0.00	30.116 
07:20	27.8	27.8	27.8	81	22.7	0	0	---	0.00	30.116 
07:25	27.6	27.6	27.6	81	22.5	0	0	---	0.00	30.116 
07:30	27.5	27.5	27.5	81	22.4	0	0	---	0.00	30.116 
07:35	27.3	27.3	27.3	81	22.3	0	0	---	0.00	30.116 
07:40	27.2	27.2	27.2	81	22.2	0	0	---	0.00	30.116 
07:45	27.0	27.0	27.0	81	22.0	0	0	---	0.00	30.118 
07:50	26.9	26.9	26.9	81	21.9	0	0	---	0.00	30.118 
07:55	26.7	26.7	26.7	82	22.0	0	0	---	0.00	30.118 
08:00	26.7	26.7	26.7	82	22.0	0	0	---	0.00	30.118 
08:05	26.7	26.7	26.7	83	22.2	0	0	---	0.00	30.118 
08:10	26.7	26.7	26.7	83	22.2	0	0	---	0.00	30.118 
08:15	26.9	26.9	26.9	83	22.4	0	0	---	0.00	30.123 
08:20	27.0	27.0	27.0	84	22.8	0	0	---	0.00	30.123 
08:25	27.5	27.5	27.5	84	23.3	0	0	---	0.00	30.123 
08:30	27.9	27.9	27.9	84	23.7	0	1	315	0.00	30.128 
08:35	28.5	28.5	28.5	83	24.0	0	1	315	0.00	30.128 
08:40	29.1	29.1	29.1	82	24.3	0	1	315	0.00	30.128 
08:45	29.7	29.7	29.7	81	24.6	0	1	315	0.00	30.127 
08:50	30.1	30.1	30.1	81	25.0	0	1	315	0.00	30.127 
08:55	30.9	30.9	30.9	79	25.2	0	1	315	0.00	30.127 
09:00	31.5	31.5	31.5	77	25.1	0	1	315	0.00	30.123 
09:05	31.9	31.9	31.9	76	25.2	0	1	315	0.00	30.123 
09:10	32.5	32.5	32.5	74	25.2	0	1	315	0.00	30.123 
09:15	32.9	32.9	32.9	73	25.2	0	0	---	0.00	30.122 
09:20	33.5	33.5	33.5	72	25.5	0	2	315	0.00	30.122 
09:25	33.8	33.8	33.8	69	24.7	0	2	315	0.00	30.122 
09:30	34.3	34.3	34.3	67	24.5	1	3	315	0.00	30.125 
09:35	34.4	34.4	34.4	65	23.9	1	3	315	0.00	30.125 
09:40	34.6	34.6	34.6	65	24.1	0	2	315	0.00	30.125 
09:45	34.9	34.9	34.9	65	24.3	1	2	315	0.00	30.125 
09:50	35.2	35.2	35.2	65	24.6	0	2	315	0.00	30.125 
09:55	35.5	35.5	35.5	65	24.9	0	1	315	0.00	30.125 
10:00	35.9	35.9	35.9	65	25.3	0	2	315	0.00	30.125 
10:05	36.2	36.2	36.2	64	25.2	1	3	315	0.00	30.125 
10:10	36.3	36.3	36.3	64	25.3	0	3	315	0.00	30.125 
10:15	36.9	36.9	36.9	64	25.9	1	3	315	0.00	30.128 
10:20	37.2	37.2	37.2	64	26.2	0	2	315	0.00	30.128 
10:25	37.6	37.6	37.6	64	26.5	1	3	315	0.00	30.128 
10:30	38.0	38.0	38.0	63	26.5	1	4	315	0.00	30.132 
10:35	38.2	38.2	38.2	63	26.7	1	3	315	0.00	30.132 
10:40	38.5	38.5	38.5	63	27.0	0	2	315	0.00	30.132 
10:45	39.1	39.1	39.1	62	27.2	1	3	315	0.00	30.135 
10:50	39.3	39.3	39.3	62	27.4	1	3	315	0.00	30.135 
10:55	39.5	39.5	39.5	62	27.6	2	6	338	0.00	30.135 
11:00	39.9	39.9	39.9	62	28.0	1	3	270	0.00	30.137 
11:05	40.3	40.3	40.3	61	27.9	1	5	270	0.00	30.137 
11:10	40.6	40.6	40.6	60	27.8	1	3	292	0.00	30.137 
11:15	40.9	40.9	40.9	61	28.5	1	3	315	0.00	30.135 
11:20	41.2	41.2	41.2	58	27.6	2	3	292	0.00	30.135 
11:25	41.3	41.3	41.3	58	27.7	2	5	270	0.00	30.135 
11:30	41.5	41.5	41.5	58	27.8	2	3	270	0.00	30.136 
11:35	41.6	41.6	41.6	58	27.9	2	5	270	0.00	30.136 
11:40	41.9	41.9	41.9	58	28.2	2	4	292	0.00	30.136 
11:45	42.1	42.1	42.1	56	27.5	2	6	315	0.00	30.133 
11:50	42.1	42.1	42.1	55	27.1	3	5	270	0.00	30.133 
11:55	42.5	42.5	42.5	54	27.0	3	6	292	0.00	30.133 
12:00	42.6	42.6	42.6	54	27.1	2	6	292	0.00	30.131 
12:05	43.1	43.1	43.1	51	26.2	2	5	292	0.00	30.131 
12:10	43.8	43.8	43.8	50	26.4	1	4	292	0.00	30.131 
12:15	43.9	43.9	43.9	50	26.5	3	7	270	0.00	30.127 
12:20	44.3	44.3	44.3	49	26.4	3	8	270	0.00	30.127 
12:25	44.5	44.5	44.5	47	25.5	3	9	270	0.00	30.127 
12:30	44.3	42.3	44.3	44	23.8	4	10	292	0.00	30.128 
12:35	44.3	44.3	44.3	44	23.8	3	10	270	0.00	30.128 
12:40	44.3	44.3	44.3	43	23.2	3	6	292	0.00	30.128 
12:45	44.6	44.6	44.6	45	24.6	1	4	315	0.00	30.123 
12:50	44.5	44.5	44.5	43	23.4	3	9	292	0.00	30.123 
12:55	44.6	44.6	44.6	43	23.5	3	4	292	0.00	30.123 
13:00	44.9	44.9	44.9	45	24.9	2	6	315	0.00	30.122 
13:05	44.8	44.8	44.8	43	23.7	3	9	292	0.00	30.122 
13:10	44.8	44.8	44.8	41	22.6	3	6	292	0.00	30.122 
13:15	45.4	45.4	45.4	45	25.3	2	5	292	0.00	30.117 
13:20	45.7	45.7	45.7	45	25.6	3	5	270	0.00	30.117 
13:25	45.7	45.7	45.7	42	23.9	3	7	338	0.00	30.117 
13:30	45.7	45.7	45.7	42	23.9	2	5	248	0.00	30.110 
13:35	45.7	45.7	45.7	44	25.0	2	6	292	0.00	30.110 
13:40	46.0	46.0	46.0	43	24.8	3	6	292	0.00	30.110 
13:45	46.0	46.0	46.0	40	23.0	3	9	270	0.00	30.113 
13:50	45.7	45.7	45.7	41	23.4	3	5	270	0.00	30.113 
13:55	45.5	45.5	45.5	43	24.3	3	7	315	0.00	30.113 
14:00	45.4	45.4	45.4	39	21.9	3	9	292	0.00	30.116 
14:05	46.0	46.0	46.0	42	24.2	2	4	292	0.00	30.116 
14:10	46.0	46.0	46.0	42	24.2	3	9	270	0.00	30.116 
14:15	46.0	46.0	46.0	39	22.4	3	10	270	0.00	30.115 
14:20	46.2	46.2	46.2	38	22.0	2	7	270	0.00	30.115 
14:25	46.5	46.5	46.5	41	24.1	2	5	270	0.00	30.115 
14:30	46.8	46.8	46.8	40	23.8	2	4	248	0.00	30.108 
14:35	47.3	47.3	47.3	39	23.6	3	6	270	0.00	30.108 
14:40	47.1	47.1	47.1	40	24.0	3	9	270	0.00	30.108 
14:45	46.8	46.8	46.8	42	24.9	2	5	315	0.00	30.105 
14:50	46.7	46.7	46.7	37	21.8	3	6	292	0.00	30.105 
14:55	46.7	45.1	46.7	36	21.2	4	6	292	0.00	30.105 
15:00	47.0	47.0	47.0	39	23.3	2	6	270	0.00	30.100 
15:05	47.4	47.4	47.4	38	23.1	3	7	270	0.00	30.100 
15:10	47.4	47.4	47.4	38	23.1	2	5	292	0.00	30.100 
15:15	47.7	47.7	47.7	38	23.4	3	7	270	0.00	30.097 
15:20	47.9	47.9	47.9	38	23.5	2	6	338	0.00	30.097 
15:25	47.4	45.9	47.4	36	21.8	4	11	292	0.00	30.097 
15:30	47.3	47.3	47.3	37	22.4	2	6	292	0.00	30.091 
15:35	47.3	45.8	47.3	38	23.0	4	7	292	0.00	30.091 
15:40	47.6	47.6	47.6	39	23.9	2	6	292	0.00	30.091 
15:45	47.6	47.6	47.6	39	23.9	2	7	270	0.00	30.086 
15:50	48.0	48.0	48.0	39	24.2	3	6	292	0.00	30.086 
15:55	48.5	48.5	48.5	37	23.4	2	5	270	0.00	30.086 
16:00	48.8	48.8	48.8	36	23.0	2	5	270	0.00	30.083 
16:05	49.2	49.2	49.2	36	23.4	2	4	270	0.00	30.083 
16:10	49.4	49.4	49.4	34	22.2	2	4	270	0.00	30.083 
16:15	49.4	49.4	49.4	35	22.9	2	5	270	0.00	30.078 
16:20	49.2	49.2	49.2	35	22.7	3	7	270	0.00	30.078 
16:25	48.8	48.8	48.8	36	23.0	3	6	292	0.00	30.078 
16:30	48.8	48.8	48.8	35	22.4	3	5	270	0.00	30.076 
16:35	48.8	48.8	48.8	34	21.7	2	5	248	0.00	30.076 
16:40	48.9	48.9	48.9	36	23.1	2	7	270	0.00	30.076 
16:45	48.8	48.8	48.8	34	21.7	2	5	270	0.00	30.074 
16:50	48.8	48.8	48.8	34	21.7	3	6	292	0.00	30.074 
16:55	48.2	48.2	48.2	35	21.8	1	5	292	0.00	30.074 
17:00	48.0	48.0	48.0	34	21.0	3	6	292	0.00	30.075 
17:05	48.2	48.2	48.2	35	21.8	3	6	292	0.00	30.075 
17:10	47.9	47.9	47.9	35	21.6	3	7	338	0.00	30.075 
17:15	48.0	48.0	48.0	35	21.7	3	5	270	0.00	30.074 
17:20	48.3	48.3	48.3	34	21.3	3	6	270	0.00	30.074 
17:25	48.3	48.3	48.3	34	21.3	3	5	292	0.00	30.074 
17:30	48.5	48.5	48.5	34	21.4	2	6	315	0.00	30.073 
17:35	48.8	48.8	48.8	30	18.8	2	4	315	0.00	30.073 
17:40	48.6	48.6	48.6	32	20.1	2	4	292	0.00	30.073 
17:45	48.6	48.6	48.6	31	19.3	3	12	292	0.00	30.071 
17:50	48.5	48.5	48.5	31	19.3	3	5	248	0.00	30.071 
17:55	48.6	48.6	48.6	33	20.8	1	4	270	0.00	30.071 
18:00	48.9	48.9	48.9	33	21.1	1	3	248	0.00	30.067 
18:05	48.8	48.8	48.8	32	20.3	2	6	292	0.00	30.067 
18:10	48.6	48.6	48.6	33	20.8	1	5	248	0.00	30.067 
18:15	48.6	48.6	48.6	31	19.3	2	4	292	0.00	30.070 
18:20	48.3	48.3	48.3	33	20.5	2	6	338	0.00	30.070 
18:25	48.2	48.2	48.2	33	20.5	2	5	270	0.00	30.070 
18:30	47.6	47.6	47.6	34	20.6	1	4	270	0.00	30.069 
18:35	47.4	47.4	47.4	35	21.1	1	5	315	0.00	30.069 
18:40	47.4	47.4	47.4	35	21.1	1	3	315	0.00	30.069 
18:45	47.1	47.1	47.1	35	20.9	1	4	248	0.00	30.072 
18:50	47.0	47.0	47.0	35	20.8	1	3	292	0.00	30.072 
18:55	47.0	47.0	47.0	36	21.4	1	4	270	0.00	30.072 
19:00	46.8	46.8	46.8	36	21.3	0	3	270	0.00	30.073 
19:05	46.7	46.7	46.7	37	21.8	1	3	292	0.00	30.073 
19:10	46.5	46.5	46.5	37	21.6	1	3	315	0.00	30.073 
19:15	46.4	46.4	46.4	38	22.2	0	2	315	0.00	30.074 
19:20	46.2	46.2	46.2	38	22.0	0	2	315	0.00	30.074 
19:25	46.2	46.2	46.2	39	22.6	0	2	315	0.00	30.074 
19:30	46.1	46.1	46.1	39	22.5	0	1	315	0.00	30.076 
19:35	46.0	46.0	46.0	39	22.4	0	2	315	0.00	30.076 
19:40	45.8	45.8	45.8	40	22.9	0	3	292	0.00	30.076 
19:45	45.5	45.5	45.5	40	22.6	0	3	292	0.00	30.076 
19:50	45.4	45.4	45.4	41	23.1	0	1	292	0.00	30.076 
19:55	45.2	45.2	45.2	42	23.5	0	1	292	0.00	30.076 
20:00	45.1	45.1	45.1	43	24.0	0	2	292	0.00	30.076 
20:05	45.1	45.1	45.1	43	24.0	0	1	292	0.00	30.076 
20:10	44.9	44.9	44.9	43	23.8	0	3	292	0.00	30.076 
20:15	44.9	44.9	44.9	43	23.8	0	1	292	0.00	30.071 
20:20	44.6	44.6	44.6	43	23.5	0	1	292	0.00	30.071 
20:25	44.5	44.5	44.5	44	24.0	0	1	292	0.00	30.071 
20:30	44.3	44.3	44.3	44	23.8	0	1	292	0.00	30.069 
20:35	44.2	44.2	44.2	44	23.7	0	2	292	0.00	30.069 
20:40	44.1	44.1	44.1	44	23.6	0	1	292	0.00	30.069 
20:45	43.9	43.9	43.9	45	23.9	0	1	292	0.00	30.072 
20:50	43.8	43.8	43.8	45	23.9	0	1	292	0.00	30.072 
20:55	43.6	43.6	43.6	46	24.2	0	0	---	0.00	30.072 
21:00	43.5	43.5	43.5	46	24.1	0	0	---	0.00	30.073 
21:05	43.2	43.2	43.2	46	23.8	0	0	---	0.00	30.073 
21:10	42.9	42.9	42.9	47	24.1	0	0	---	0.00	30.073 
21:15	42.8	42.8	42.8	47	24.0	0	0	---	0.00	30.074 
21:20	42.5	42.5	42.5	48	24.2	0	0	---	0.00	30.074 
21:25	42.3	42.3	42.3	49	24.5	0	0	---	0.00	30.074 
21:30	42.1	42.1	42.1	49	24.3	0	0	---	0.00	30.075 
21:35	41.8	41.8	41.8	49	24.1	0	0	---	0.00	30.075 
21:40	41.5	41.5	41.5	49	23.8	0	0	---	0.00	30.075 
21:45	41.2	41.2	41.2	50	24.0	0	0	---	0.00	30.080 
21:50	40.9	40.9	40.9	50	23.7	0	0	---	0.00	30.080 
21:55	40.6	40.6	40.6	50	23.4	0	0	---	0.00	30.080 
22:00	40.5	40.5	40.5	51	23.8	0	0	---	0.00	30.083 
22:05	40.1	40.1	40.1	52	23.9	0	0	---	0.00	30.083 
22:10	39.8	39.8	39.8	53	24.1	0	0	---	0.00	30.083 
22:15	39.5	39.5	39.5	53	23.8	0	0	---	0.00	30.075 
22:20	39.1	39.1	39.1	54	23.9	0	0	---	0.00	30.075 
22:25	38.8	38.8	38.8	55	24.0	0	0	---	0.00	30.075 
22:30	38.3	38.3	38.3	56	24.0	0	0	---	0.00	30.076 
22:35	38.0	38.0	38.0	57	24.1	0	0	---	0.00	30.076 
22:40	37.8	37.8	37.8	58	24.4	0	0	---	0.00	30.076 
22:45	37.6	37.6	37.6	58	24.2	0	0	---	0.00	30.071 
22:50	37.3	37.3	37.3	59	24.3	0	0	---	0.00	30.071 
22:55	37.2	37.2	37.2	59	24.2	0	0	---	0.00	30.071 
23:00	37.0	37.0	37.0	60	24.4	0	0	---	0.00	30.068 
23:05	36.9	36.9	36.9	60	24.3	0	0	---	0.00	30.068 
23:10	36.8	36.8	36.8	61	24.6	0	0	---	0.00	30.068 
23:15	36.6	36.6	36.6	61	24.4	0	0	---	0.00	30.058 
23:20	36.5	36.5	36.5	62	24.7	0	0	---	0.00	30.058 
23:25	36.3	36.3	36.3	62	24.5	0	0	---	0.00	30.058 
23:30	36.3	36.3	36.3	62	24.5	0	0	---	0.00	30.054 
23:35	36.3	36.3	36.3	62	24.5	0	0	---	0.00	30.054 
23:40	36.2	36.2	36.2	63	24.8	0	0	---	0.00	30.054 
23:45	36.2	36.2	36.2	63	24.8	0	0	---	0.00	30.053 
23:50	36.2	36.2	36.2	63	24.8	0	0	---	0.00	30.053 
23:55	36.0	36.0	36.0	64	25.0	0	0	---	0.00	30.053 

CoCoRaHS
IN-AL-39
A2 Web Hosting
Creative Commons License
GoDaddy
search engine by freefind advanced

loaded 2018-11-12 19:56:04 • last modified 2010-11-18 10:43:29
Privacy PolicyDisclaimer
• wx.awcolley.com is powered by PmWiki v.2002016 •
• all content (unless otherwise noted) © 2018 A W Colley